sensor_id;sensor_type;location;lat;lon;timestamp;P1;durP1;ratioP1;P2;durP2;ratioP2
18170;SDS011;9210;48.358;10.902;2023-03-07T00:01:38;21.57;;;8.83;;
18170;SDS011;9210;48.358;10.902;2023-03-07T00:04:06;18.10;;;8.63;;
18170;SDS011;9210;48.358;10.902;2023-03-07T00:06:37;21.83;;;9.40;;
18170;SDS011;9210;48.358;10.902;2023-03-07T00:09:05;21.67;;;9.07;;
18170;SDS011;9210;48.358;10.902;2023-03-07T00:11:34;23.80;;;9.17;;
18170;SDS011;9210;48.358;10.902;2023-03-07T00:14:04;20.60;;;9.37;;
18170;SDS011;9210;48.358;10.902;2023-03-07T00:16:34;23.03;;;8.97;;
18170;SDS011;9210;48.358;10.902;2023-03-07T00:19:02;18.77;;;8.53;;
18170;SDS011;9210;48.358;10.902;2023-03-07T00:21:33;19.67;;;9.80;;
18170;SDS011;9210;48.358;10.902;2023-03-07T00:24:03;18.00;;;8.77;;
18170;SDS011;9210;48.358;10.902;2023-03-07T00:26:31;19.50;;;9.10;;
18170;SDS011;9210;48.358;10.902;2023-03-07T00:29:05;17.70;;;9.13;;
18170;SDS011;9210;48.358;10.902;2023-03-07T00:31:33;19.50;;;9.50;;
18170;SDS011;9210;48.358;10.902;2023-03-07T00:34:02;18.40;;;8.83;;
18170;SDS011;9210;48.358;10.902;2023-03-07T00:36:31;19.47;;;9.40;;
18170;SDS011;9210;48.358;10.902;2023-03-07T00:38:59;18.60;;;9.03;;
18170;SDS011;9210;48.358;10.902;2023-03-07T00:41:29;21.43;;;9.00;;
18170;SDS011;9210;48.358;10.902;2023-03-07T00:43:57;19.43;;;9.37;;
18170;SDS011;9210;48.358;10.902;2023-03-07T00:46:26;19.73;;;9.13;;
18170;SDS011;9210;48.358;10.902;2023-03-07T00:48:54;22.60;;;9.80;;
18170;SDS011;9210;48.358;10.902;2023-03-07T00:51:23;17.50;;;8.37;;
18170;SDS011;9210;48.358;10.902;2023-03-07T00:53:52;20.10;;;9.60;;
18170;SDS011;9210;48.358;10.902;2023-03-07T00:56:21;21.13;;;9.53;;
18170;SDS011;9210;48.358;10.902;2023-03-07T00:58:51;18.93;;;8.80;;
18170;SDS011;9210;48.358;10.902;2023-03-07T01:01:20;22.73;;;9.73;;
18170;SDS011;9210;48.358;10.902;2023-03-07T01:03:49;23.30;;;9.40;;
18170;SDS011;9210;48.358;10.902;2023-03-07T01:06:20;20.10;;;9.70;;
18170;SDS011;9210;48.358;10.902;2023-03-07T01:08:50;20.73;;;9.50;;
18170;SDS011;9210;48.358;10.902;2023-03-07T01:11:20;18.43;;;8.90;;
18170;SDS011;9210;48.358;10.902;2023-03-07T01:13:48;20.77;;;10.07;;
18170;SDS011;9210;48.358;10.902;2023-03-07T01:16:19;25.50;;;10.43;;
18170;SDS011;9210;48.358;10.902;2023-03-07T01:18:48;20.93;;;9.97;;
18170;SDS011;9210;48.358;10.902;2023-03-07T01:21:18;21.50;;;9.73;;
18170;SDS011;9210;48.358;10.902;2023-03-07T01:23:48;23.27;;;10.53;;
18170;SDS011;9210;48.358;10.902;2023-03-07T01:26:17;21.17;;;9.63;;
18170;SDS011;9210;48.358;10.902;2023-03-07T01:28:46;24.27;;;10.27;;
18170;SDS011;9210;48.358;10.902;2023-03-07T01:31:15;21.57;;;10.07;;
18170;SDS011;9210;48.358;10.902;2023-03-07T01:33:46;23.60;;;10.57;;
18170;SDS011;9210;48.358;10.902;2023-03-07T01:36:16;22.97;;;10.73;;
18170;SDS011;9210;48.358;10.902;2023-03-07T01:38:46;23.57;;;9.80;;
18170;SDS011;9210;48.358;10.902;2023-03-07T01:41:16;27.40;;;10.50;;
18170;SDS011;9210;48.358;10.902;2023-03-07T01:43:47;23.63;;;10.33;;
18170;SDS011;9210;48.358;10.902;2023-03-07T01:46:27;22.07;;;10.20;;
18170;SDS011;9210;48.358;10.902;2023-03-07T01:49:00;26.43;;;10.93;;
18170;SDS011;9210;48.358;10.902;2023-03-07T01:51:32;26.20;;;10.63;;
18170;SDS011;9210;48.358;10.902;2023-03-07T01:54:03;22.33;;;10.47;;
18170;SDS011;9210;48.358;10.902;2023-03-07T01:56:32;20.93;;;10.13;;
18170;SDS011;9210;48.358;10.902;2023-03-07T01:59:01;25.33;;;10.40;;
18170;SDS011;9210;48.358;10.902;2023-03-07T02:01:30;25.47;;;11.43;;
18170;SDS011;9210;48.358;10.902;2023-03-07T02:04:00;25.07;;;11.47;;
18170;SDS011;9210;48.358;10.902;2023-03-07T02:06:30;22.27;;;9.80;;
18170;SDS011;9210;48.358;10.902;2023-03-07T02:09:00;21.30;;;10.27;;
18170;SDS011;9210;48.358;10.902;2023-03-07T02:11:29;22.90;;;10.40;;
18170;SDS011;9210;48.358;10.902;2023-03-07T02:13:58;22.80;;;11.00;;
18170;SDS011;9210;48.358;10.902;2023-03-07T02:16:26;22.17;;;10.90;;
18170;SDS011;9210;48.358;10.902;2023-03-07T02:18:55;23.57;;;10.37;;
18170;SDS011;9210;48.358;10.902;2023-03-07T02:21:28;27.40;;;12.00;;
18170;SDS011;9210;48.358;10.902;2023-03-07T02:24:01;23.70;;;10.17;;
18170;SDS011;9210;48.358;10.902;2023-03-07T02:26:38;21.07;;;9.77;;
18170;SDS011;9210;48.358;10.902;2023-03-07T02:29:07;23.27;;;10.30;;
18170;SDS011;9210;48.358;10.902;2023-03-07T02:31:36;24.83;;;11.00;;
18170;SDS011;9210;48.358;10.902;2023-03-07T02:34:15;20.63;;;10.10;;
18170;SDS011;9210;48.358;10.902;2023-03-07T02:36:46;24.07;;;10.30;;
18170;SDS011;9210;48.358;10.902;2023-03-07T02:39:19;22.67;;;10.30;;
18170;SDS011;9210;48.358;10.902;2023-03-07T02:41:51;20.73;;;9.80;;
18170;SDS011;9210;48.358;10.902;2023-03-07T02:44:31;23.67;;;10.30;;
18170;SDS011;9210;48.358;10.902;2023-03-07T02:47:00;20.83;;;9.73;;
18170;SDS011;9210;48.358;10.902;2023-03-07T02:49:28;23.27;;;10.30;;
18170;SDS011;9210;48.358;10.902;2023-03-07T02:51:57;20.00;;;10.07;;
18170;SDS011;9210;48.358;10.902;2023-03-07T02:54:27;21.23;;;10.50;;
18170;SDS011;9210;48.358;10.902;2023-03-07T02:56:58;20.50;;;9.53;;
18170;SDS011;9210;48.358;10.902;2023-03-07T02:59:26;21.20;;;9.87;;
18170;SDS011;9210;48.358;10.902;2023-03-07T03:01:55;21.97;;;9.93;;
18170;SDS011;9210;48.358;10.902;2023-03-07T03:04:24;24.23;;;11.07;;
18170;SDS011;9210;48.358;10.902;2023-03-07T03:06:52;21.77;;;9.83;;
18170;SDS011;9210;48.358;10.902;2023-03-07T03:09:21;19.27;;;9.07;;
18170;SDS011;9210;48.358;10.902;2023-03-07T03:11:49;21.43;;;9.67;;
18170;SDS011;9210;48.358;10.902;2023-03-07T03:14:22;19.03;;;8.67;;
18170;SDS011;9210;48.358;10.902;2023-03-07T03:16:50;18.70;;;9.30;;
18170;SDS011;9210;48.358;10.902;2023-03-07T03:19:19;18.83;;;9.07;;
18170;SDS011;9210;48.358;10.902;2023-03-07T03:21:48;22.13;;;9.63;;
18170;SDS011;9210;48.358;10.902;2023-03-07T03:24:17;19.37;;;9.30;;
18170;SDS011;9210;48.358;10.902;2023-03-07T03:26:46;20.27;;;9.43;;
18170;SDS011;9210;48.358;10.902;2023-03-07T03:29:16;20.90;;;8.93;;
18170;SDS011;9210;48.358;10.902;2023-03-07T03:31:46;21.53;;;9.87;;
18170;SDS011;9210;48.358;10.902;2023-03-07T03:34:16;22.20;;;9.57;;
18170;SDS011;9210;48.358;10.902;2023-03-07T03:36:45;21.20;;;10.30;;
18170;SDS011;9210;48.358;10.902;2023-03-07T03:39:14;20.83;;;9.30;;
18170;SDS011;9210;48.358;10.902;2023-03-07T03:41:46;21.13;;;8.67;;
18170;SDS011;9210;48.358;10.902;2023-03-07T03:44:18;19.47;;;9.17;;
18170;SDS011;9210;48.358;10.902;2023-03-07T03:46:48;22.33;;;9.60;;
18170;SDS011;9210;48.358;10.902;2023-03-07T03:49:19;20.13;;;9.60;;
18170;SDS011;9210;48.358;10.902;2023-03-07T03:51:49;19.50;;;9.40;;
18170;SDS011;9210;48.358;10.902;2023-03-07T03:54:18;20.47;;;9.67;;
18170;SDS011;9210;48.358;10.902;2023-03-07T03:56:47;21.13;;;9.47;;
18170;SDS011;9210;48.358;10.902;2023-03-07T03:59:15;21.90;;;9.53;;
18170;SDS011;9210;48.358;10.902;2023-03-07T04:01:44;18.50;;;9.30;;
18170;SDS011;9210;48.358;10.902;2023-03-07T04:04:14;19.77;;;8.93;;
18170;SDS011;9210;48.358;10.902;2023-03-07T04:06:43;19.17;;;8.87;;
18170;SDS011;9210;48.358;10.902;2023-03-07T04:09:12;20.00;;;8.77;;
18170;SDS011;9210;48.358;10.902;2023-03-07T04:11:44;20.70;;;9.00;;
18170;SDS011;9210;48.358;10.902;2023-03-07T04:14:12;23.40;;;9.80;;
18170;SDS011;9210;48.358;10.902;2023-03-07T04:16:41;21.17;;;9.90;;
18170;SDS011;9210;48.358;10.902;2023-03-07T04:19:09;22.83;;;9.57;;
18170;SDS011;9210;48.358;10.902;2023-03-07T04:21:42;18.47;;;8.93;;
18170;SDS011;9210;48.358;10.902;2023-03-07T04:24:14;20.07;;;9.13;;
18170;SDS011;9210;48.358;10.902;2023-03-07T04:26:42;17.87;;;8.93;;
18170;SDS011;9210;48.358;10.902;2023-03-07T04:29:10;20.03;;;9.17;;
18170;SDS011;9210;48.358;10.902;2023-03-07T04:31:41;22.17;;;9.53;;
18170;SDS011;9210;48.358;10.902;2023-03-07T04:34:10;21.23;;;9.17;;
18170;SDS011;9210;48.358;10.902;2023-03-07T04:36:39;19.63;;;8.87;;
18170;SDS011;9210;48.358;10.902;2023-03-07T04:39:09;21.10;;;9.43;;
18170;SDS011;9210;48.358;10.902;2023-03-07T04:41:37;21.93;;;9.73;;
18170;SDS011;9210;48.358;10.902;2023-03-07T04:44:13;21.17;;;9.90;;
18170;SDS011;9210;48.358;10.902;2023-03-07T04:46:42;20.80;;;9.30;;
18170;SDS011;9210;48.358;10.902;2023-03-07T04:49:11;23.37;;;9.77;;
18170;SDS011;9210;48.358;10.902;2023-03-07T04:51:39;23.30;;;10.03;;
18170;SDS011;9210;48.358;10.902;2023-03-07T04:54:12;23.30;;;9.47;;
18170;SDS011;9210;48.358;10.902;2023-03-07T04:56:42;21.33;;;9.53;;
18170;SDS011;9210;48.358;10.902;2023-03-07T04:59:10;21.20;;;9.57;;
18170;SDS011;9210;48.358;10.902;2023-03-07T05:01:39;22.23;;;9.50;;
18170;SDS011;9210;48.358;10.902;2023-03-07T05:04:08;23.13;;;9.33;;
18170;SDS011;9210;48.358;10.902;2023-03-07T05:06:37;21.37;;;9.23;;
18170;SDS011;9210;48.358;10.902;2023-03-07T05:09:06;22.30;;;9.93;;
18170;SDS011;9210;48.358;10.902;2023-03-07T05:11:36;20.07;;;9.33;;
18170;SDS011;9210;48.358;10.902;2023-03-07T05:14:06;20.60;;;9.37;;
18170;SDS011;9210;48.358;10.902;2023-03-07T05:16:35;22.13;;;9.17;;
18170;SDS011;9210;48.358;10.902;2023-03-07T05:19:03;20.80;;;9.37;;
18170;SDS011;9210;48.358;10.902;2023-03-07T05:21:32;21.70;;;9.67;;
18170;SDS011;9210;48.358;10.902;2023-03-07T05:24:01;22.87;;;9.80;;
18170;SDS011;9210;48.358;10.902;2023-03-07T05:26:31;19.60;;;9.67;;
18170;SDS011;9210;48.358;10.902;2023-03-07T05:29:01;18.93;;;9.13;;
18170;SDS011;9210;48.358;10.902;2023-03-07T05:31:29;22.73;;;9.20;;
18170;SDS011;9210;48.358;10.902;2023-03-07T05:33:58;21.17;;;9.40;;
18170;SDS011;9210;48.358;10.902;2023-03-07T05:36:27;23.13;;;9.30;;
18170;SDS011;9210;48.358;10.902;2023-03-07T05:38:55;20.93;;;9.30;;
18170;SDS011;9210;48.358;10.902;2023-03-07T05:41:24;21.57;;;9.30;;
18170;SDS011;9210;48.358;10.902;2023-03-07T05:43:52;21.57;;;9.10;;
18170;SDS011;9210;48.358;10.902;2023-03-07T05:46:23;20.10;;;8.90;;
18170;SDS011;9210;48.358;10.902;2023-03-07T05:48:51;20.43;;;8.83;;
18170;SDS011;9210;48.358;10.902;2023-03-07T05:51:20;20.67;;;8.23;;
18170;SDS011;9210;48.358;10.902;2023-03-07T05:53:49;20.97;;;8.97;;
18170;SDS011;9210;48.358;10.902;2023-03-07T05:56:18;23.03;;;9.73;;
18170;SDS011;9210;48.358;10.902;2023-03-07T05:58:46;19.53;;;8.87;;
18170;SDS011;9210;48.358;10.902;2023-03-07T06:01:15;19.23;;;9.13;;
18170;SDS011;9210;48.358;10.902;2023-03-07T06:03:45;22.20;;;9.13;;
18170;SDS011;9210;48.358;10.902;2023-03-07T06:06:13;22.87;;;9.77;;
18170;SDS011;9210;48.358;10.902;2023-03-07T06:08:42;20.23;;;9.10;;
18170;SDS011;9210;48.358;10.902;2023-03-07T06:11:10;18.90;;;8.80;;
18170;SDS011;9210;48.358;10.902;2023-03-07T06:13:39;18.57;;;8.73;;
18170;SDS011;9210;48.358;10.902;2023-03-07T06:16:07;17.53;;;7.83;;
18170;SDS011;9210;48.358;10.902;2023-03-07T06:18:38;18.57;;;8.63;;
18170;SDS011;9210;48.358;10.902;2023-03-07T06:21:09;20.40;;;9.23;;
18170;SDS011;9210;48.358;10.902;2023-03-07T06:23:42;21.50;;;9.17;;
18170;SDS011;9210;48.358;10.902;2023-03-07T06:26:15;16.63;;;7.63;;
18170;SDS011;9210;48.358;10.902;2023-03-07T06:28:47;16.90;;;7.90;;
18170;SDS011;9210;48.358;10.902;2023-03-07T06:31:16;19.20;;;8.77;;
18170;SDS011;9210;48.358;10.902;2023-03-07T06:33:46;22.27;;;8.73;;
18170;SDS011;9210;48.358;10.902;2023-03-07T06:36:18;18.63;;;8.03;;
18170;SDS011;9210;48.358;10.902;2023-03-07T06:38:53;16.30;;;7.67;;
18170;SDS011;9210;48.358;10.902;2023-03-07T06:41:22;18.47;;;8.13;;
18170;SDS011;9210;48.358;10.902;2023-03-07T06:43:53;20.53;;;8.47;;
18170;SDS011;9210;48.358;10.902;2023-03-07T06:46:26;16.53;;;7.70;;
18170;SDS011;9210;48.358;10.902;2023-03-07T06:48:55;19.77;;;8.23;;
18170;SDS011;9210;48.358;10.902;2023-03-07T06:51:25;16.30;;;7.63;;
18170;SDS011;9210;48.358;10.902;2023-03-07T06:53:56;19.57;;;7.63;;
18170;SDS011;9210;48.358;10.902;2023-03-07T06:56:25;17.17;;;7.93;;
18170;SDS011;9210;48.358;10.902;2023-03-07T06:58:56;19.00;;;7.97;;
18170;SDS011;9210;48.358;10.902;2023-03-07T07:01:25;18.83;;;7.60;;
18170;SDS011;9210;48.358;10.902;2023-03-07T07:03:56;17.37;;;7.70;;
18170;SDS011;9210;48.358;10.902;2023-03-07T07:06:27;16.23;;;7.83;;
18170;SDS011;9210;48.358;10.902;2023-03-07T07:08:56;14.80;;;7.60;;
18170;SDS011;9210;48.358;10.902;2023-03-07T07:11:29;21.37;;;8.17;;
18170;SDS011;9210;48.358;10.902;2023-03-07T07:13:59;16.87;;;7.13;;
18170;SDS011;9210;48.358;10.902;2023-03-07T07:16:27;16.40;;;7.47;;
18170;SDS011;9210;48.358;10.902;2023-03-07T07:18:59;16.07;;;7.40;;
18170;SDS011;9210;48.358;10.902;2023-03-07T07:21:28;17.20;;;7.80;;
18170;SDS011;9210;48.358;10.902;2023-03-07T07:23:57;18.63;;;7.40;;
18170;SDS011;9210;48.358;10.902;2023-03-07T07:26:26;14.70;;;7.53;;
18170;SDS011;9210;48.358;10.902;2023-03-07T07:28:56;16.23;;;8.27;;
18170;SDS011;9210;48.358;10.902;2023-03-07T07:31:25;13.90;;;6.87;;
18170;SDS011;9210;48.358;10.902;2023-03-07T07:33:54;15.87;;;7.20;;
18170;SDS011;9210;48.358;10.902;2023-03-07T07:36:25;17.77;;;7.77;;
18170;SDS011;9210;48.358;10.902;2023-03-07T07:38:55;15.17;;;7.47;;
18170;SDS011;9210;48.358;10.902;2023-03-07T07:41:24;13.83;;;7.10;;
18170;SDS011;9210;48.358;10.902;2023-03-07T07:43:54;17.17;;;7.50;;
18170;SDS011;9210;48.358;10.902;2023-03-07T07:46:41;15.77;;;7.07;;
18170;SDS011;9210;48.358;10.902;2023-03-07T07:49:11;15.20;;;7.63;;
18170;SDS011;9210;48.358;10.902;2023-03-07T07:51:39;13.93;;;6.90;;
18170;SDS011;9210;48.358;10.902;2023-03-07T07:54:09;14.87;;;7.20;;
18170;SDS011;9210;48.358;10.902;2023-03-07T07:56:37;15.03;;;7.07;;
18170;SDS011;9210;48.358;10.902;2023-03-07T07:59:06;12.83;;;7.27;;
18170;SDS011;9210;48.358;10.902;2023-03-07T08:01:35;14.17;;;7.20;;
18170;SDS011;9210;48.358;10.902;2023-03-07T08:04:04;12.80;;;6.97;;
18170;SDS011;9210;48.358;10.902;2023-03-07T08:06:33;13.57;;;6.67;;
18170;SDS011;9210;48.358;10.902;2023-03-07T08:09:02;14.33;;;7.77;;
18170;SDS011;9210;48.358;10.902;2023-03-07T08:11:32;12.97;;;7.20;;
18170;SDS011;9210;48.358;10.902;2023-03-07T08:14:01;15.43;;;7.60;;
18170;SDS011;9210;48.358;10.902;2023-03-07T08:16:30;14.77;;;7.73;;
18170;SDS011;9210;48.358;10.902;2023-03-07T08:18:58;12.93;;;7.00;;
18170;SDS011;9210;48.358;10.902;2023-03-07T08:21:27;14.90;;;7.60;;
18170;SDS011;9210;48.358;10.902;2023-03-07T08:23:55;14.07;;;7.70;;
18170;SDS011;9210;48.358;10.902;2023-03-07T08:26:24;13.60;;;7.53;;
18170;SDS011;9210;48.358;10.902;2023-03-07T08:28:54;13.40;;;7.60;;
18170;SDS011;9210;48.358;10.902;2023-03-07T08:31:23;15.40;;;8.47;;
18170;SDS011;9210;48.358;10.902;2023-03-07T08:33:51;13.63;;;7.10;;
18170;SDS011;9210;48.358;10.902;2023-03-07T08:36:20;14.17;;;7.60;;
18170;SDS011;9210;48.358;10.902;2023-03-07T08:38:49;16.83;;;7.70;;
18170;SDS011;9210;48.358;10.902;2023-03-07T08:41:18;15.80;;;6.50;;
18170;SDS011;9210;48.358;10.902;2023-03-07T08:43:47;15.17;;;6.90;;
18170;SDS011;9210;48.358;10.902;2023-03-07T08:46:16;12.73;;;6.63;;
18170;SDS011;9210;48.358;10.902;2023-03-07T08:48:45;16.27;;;7.17;;
18170;SDS011;9210;48.358;10.902;2023-03-07T08:51:14;14.80;;;7.13;;
18170;SDS011;9210;48.358;10.902;2023-03-07T08:53:43;13.37;;;6.87;;
18170;SDS011;9210;48.358;10.902;2023-03-07T08:56:13;14.63;;;7.33;;
18170;SDS011;9210;48.358;10.902;2023-03-07T08:58:41;13.93;;;6.80;;
18170;SDS011;9210;48.358;10.902;2023-03-07T09:01:11;12.43;;;6.30;;
18170;SDS011;9210;48.358;10.902;2023-03-07T09:03:41;13.27;;;6.93;;
18170;SDS011;9210;48.358;10.902;2023-03-07T09:06:13;11.63;;;6.10;;
18170;SDS011;9210;48.358;10.902;2023-03-07T09:08:42;14.67;;;7.07;;
18170;SDS011;9210;48.358;10.902;2023-03-07T09:11:12;10.43;;;6.27;;
18170;SDS011;9210;48.358;10.902;2023-03-07T09:13:40;11.67;;;6.20;;
18170;SDS011;9210;48.358;10.902;2023-03-07T09:16:18;13.53;;;6.83;;
18170;SDS011;9210;48.358;10.902;2023-03-07T09:18:48;15.03;;;7.13;;
18170;SDS011;9210;48.358;10.902;2023-03-07T09:21:16;14.50;;;6.80;;
18170;SDS011;9210;48.358;10.902;2023-03-07T09:23:44;12.87;;;6.13;;
18170;SDS011;9210;48.358;10.902;2023-03-07T09:26:13;13.80;;;6.77;;
18170;SDS011;9210;48.358;10.902;2023-03-07T09:28:41;14.40;;;6.87;;
18170;SDS011;9210;48.358;10.902;2023-03-07T09:31:11;13.30;;;6.90;;
18170;SDS011;9210;48.358;10.902;2023-03-07T09:33:40;12.17;;;6.63;;
18170;SDS011;9210;48.358;10.902;2023-03-07T09:36:13;14.00;;;6.93;;
18170;SDS011;9210;48.358;10.902;2023-03-07T09:38:43;15.40;;;7.80;;
18170;SDS011;9210;48.358;10.902;2023-03-07T09:44:10;14.40;;;7.40;;
18170;SDS011;9210;48.358;10.902;2023-03-07T09:47:16;16.30;;;7.50;;
18170;SDS011;9210;48.358;10.902;2023-03-07T09:49:49;17.43;;;7.70;;
18170;SDS011;9210;48.358;10.902;2023-03-07T09:52:19;14.67;;;7.50;;
18170;SDS011;9210;48.358;10.902;2023-03-07T09:54:49;15.67;;;7.80;;
18170;SDS011;9210;48.358;10.902;2023-03-07T09:57:20;17.03;;;7.90;;
18170;SDS011;9210;48.358;10.902;2023-03-07T09:59:50;18.40;;;7.63;;
18170;SDS011;9210;48.358;10.902;2023-03-07T10:02:22;14.37;;;7.60;;
18170;SDS011;9210;48.358;10.902;2023-03-07T10:04:54;17.67;;;7.70;;
18170;SDS011;9210;48.358;10.902;2023-03-07T10:07:25;16.23;;;7.20;;
18170;SDS011;9210;48.358;10.902;2023-03-07T10:09:56;12.83;;;6.87;;
18170;SDS011;9210;48.358;10.902;2023-03-07T10:15:21;14.40;;;6.80;;
18170;SDS011;9210;48.358;10.902;2023-03-07T10:17:58;14.20;;;6.83;;
18170;SDS011;9210;48.358;10.902;2023-03-07T10:20:31;15.03;;;7.10;;
18170;SDS011;9210;48.358;10.902;2023-03-07T10:23:08;17.53;;;6.67;;
18170;SDS011;9210;48.358;10.902;2023-03-07T10:25:48;17.00;;;7.57;;
18170;SDS011;9210;48.358;10.902;2023-03-07T10:28:19;20.13;;;7.97;;
18170;SDS011;9210;48.358;10.902;2023-03-07T10:30:49;18.67;;;7.70;;
18170;SDS011;9210;48.358;10.902;2023-03-07T10:33:19;20.43;;;7.70;;
18170;SDS011;9210;48.358;10.902;2023-03-07T10:35:47;18.30;;;8.07;;
18170;SDS011;9210;48.358;10.902;2023-03-07T10:38:25;19.60;;;7.20;;
18170;SDS011;9210;48.358;10.902;2023-03-07T10:40:56;14.70;;;6.77;;
18170;SDS011;9210;48.358;10.902;2023-03-07T10:43:26;17.03;;;7.50;;
18170;SDS011;9210;48.358;10.902;2023-03-07T10:45:55;14.97;;;7.53;;
18170;SDS011;9210;48.358;10.902;2023-03-07T10:48:26;17.33;;;7.53;;
18170;SDS011;9210;48.358;10.902;2023-03-07T10:50:57;14.57;;;7.00;;
18170;SDS011;9210;48.358;10.902;2023-03-07T10:53:30;14.97;;;7.33;;
18170;SDS011;9210;48.358;10.902;2023-03-07T10:56:11;14.90;;;6.97;;
18170;SDS011;9210;48.358;10.902;2023-03-07T10:58:44;14.73;;;7.20;;
18170;SDS011;9210;48.358;10.902;2023-03-07T11:01:26;16.10;;;7.67;;
18170;SDS011;9210;48.358;10.902;2023-03-07T11:03:57;15.60;;;7.67;;
18170;SDS011;9210;48.358;10.902;2023-03-07T11:06:27;13.17;;;6.87;;
18170;SDS011;9210;48.358;10.902;2023-03-07T11:08:57;18.27;;;7.67;;
18170;SDS011;9210;48.358;10.902;2023-03-07T11:11:34;15.30;;;6.80;;
18170;SDS011;9210;48.358;10.902;2023-03-07T11:14:04;15.37;;;7.40;;
18170;SDS011;9210;48.358;10.902;2023-03-07T11:16:33;14.13;;;7.03;;
18170;SDS011;9210;48.358;10.902;2023-03-07T11:22:19;15.70;;;7.37;;
18170;SDS011;9210;48.358;10.902;2023-03-07T11:24:51;17.63;;;6.83;;
18170;SDS011;9210;48.358;10.902;2023-03-07T11:27:20;14.87;;;7.53;;
18170;SDS011;9210;48.358;10.902;2023-03-07T11:32:38;15.13;;;7.57;;
18170;SDS011;9210;48.358;10.902;2023-03-07T11:35:11;14.57;;;7.13;;
18170;SDS011;9210;48.358;10.902;2023-03-07T11:37:42;14.50;;;7.53;;
18170;SDS011;9210;48.358;10.902;2023-03-07T11:40:19;15.90;;;7.30;;
18170;SDS011;9210;48.358;10.902;2023-03-07T11:42:50;15.63;;;6.87;;
18170;SDS011;9210;48.358;10.902;2023-03-07T11:45:26;13.87;;;6.70;;
18170;SDS011;9210;48.358;10.902;2023-03-07T11:48:01;17.13;;;7.27;;
18170;SDS011;9210;48.358;10.902;2023-03-07T11:50:30;13.43;;;7.00;;
18170;SDS011;9210;48.358;10.902;2023-03-07T11:53:14;16.77;;;7.73;;
18170;SDS011;9210;48.358;10.902;2023-03-07T11:55:48;14.70;;;6.77;;
18170;SDS011;9210;48.358;10.902;2023-03-07T11:58:31;14.20;;;7.20;;
18170;SDS011;9210;48.358;10.902;2023-03-07T12:01:06;13.33;;;7.30;;
18170;SDS011;9210;48.358;10.902;2023-03-07T12:03:49;14.27;;;7.50;;
18170;SDS011;9210;48.358;10.902;2023-03-07T12:06:23;15.13;;;7.67;;
18170;SDS011;9210;48.358;10.902;2023-03-07T12:09:03;15.93;;;7.47;;
18170;SDS011;9210;48.358;10.902;2023-03-07T12:11:42;17.33;;;7.63;;
18170;SDS011;9210;48.358;10.902;2023-03-07T12:14:16;14.80;;;7.53;;
18170;SDS011;9210;48.358;10.902;2023-03-07T12:16:49;16.57;;;7.30;;
18170;SDS011;9210;48.358;10.902;2023-03-07T12:19:26;14.13;;;7.00;;
18170;SDS011;9210;48.358;10.902;2023-03-07T12:22:11;18.07;;;7.67;;
18170;SDS011;9210;48.358;10.902;2023-03-07T12:24:43;16.27;;;7.60;;
18170;SDS011;9210;48.358;10.902;2023-03-07T12:27:16;21.50;;;8.70;;
18170;SDS011;9210;48.358;10.902;2023-03-07T12:29:52;18.23;;;8.00;;
18170;SDS011;9210;48.358;10.902;2023-03-07T12:32:23;16.13;;;7.40;;
18170;SDS011;9210;48.358;10.902;2023-03-07T12:34:53;17.93;;;7.80;;
18170;SDS011;9210;48.358;10.902;2023-03-07T12:37:26;17.87;;;7.13;;
18170;SDS011;9210;48.358;10.902;2023-03-07T12:39:58;17.23;;;7.87;;
18170;SDS011;9210;48.358;10.902;2023-03-07T12:42:30;17.17;;;7.83;;
18170;SDS011;9210;48.358;10.902;2023-03-07T12:45:01;17.00;;;7.73;;
18170;SDS011;9210;48.358;10.902;2023-03-07T12:47:33;16.57;;;8.50;;
18170;SDS011;9210;48.358;10.902;2023-03-07T12:50:03;14.90;;;7.30;;
18170;SDS011;9210;48.358;10.902;2023-03-07T12:52:35;15.47;;;7.50;;
18170;SDS011;9210;48.358;10.902;2023-03-07T12:55:09;18.80;;;7.93;;
18170;SDS011;9210;48.358;10.902;2023-03-07T12:57:45;15.33;;;7.97;;
18170;SDS011;9210;48.358;10.902;2023-03-07T13:00:18;16.23;;;7.80;;
18170;SDS011;9210;48.358;10.902;2023-03-07T13:02:49;15.27;;;7.83;;
18170;SDS011;9210;48.358;10.902;2023-03-07T13:05:20;17.33;;;7.93;;
18170;SDS011;9210;48.358;10.902;2023-03-07T13:07:48;16.60;;;7.83;;
18170;SDS011;9210;48.358;10.902;2023-03-07T13:10:18;14.03;;;7.37;;
18170;SDS011;9210;48.358;10.902;2023-03-07T13:12:48;18.20;;;8.47;;
18170;SDS011;9210;48.358;10.902;2023-03-07T13:18:08;16.63;;;7.97;;
18170;SDS011;9210;48.358;10.902;2023-03-07T13:21:09;17.63;;;8.67;;
18170;SDS011;9210;48.358;10.902;2023-03-07T13:23:39;14.60;;;7.17;;
18170;SDS011;9210;48.358;10.902;2023-03-07T13:26:11;14.80;;;7.10;;
18170;SDS011;9210;48.358;10.902;2023-03-07T13:28:50;16.00;;;7.30;;
18170;SDS011;9210;48.358;10.902;2023-03-07T13:36:49;18.83;;;7.80;;
18170;SDS011;9210;48.358;10.902;2023-03-07T13:39:33;16.30;;;7.50;;
18170;SDS011;9210;48.358;10.902;2023-03-07T13:42:02;14.57;;;7.67;;
18170;SDS011;9210;48.358;10.902;2023-03-07T13:44:37;16.33;;;8.40;;
18170;SDS011;9210;48.358;10.902;2023-03-07T13:49:49;19.90;;;8.63;;
18170;SDS011;9210;48.358;10.902;2023-03-07T13:52:31;22.17;;;7.90;;
18170;SDS011;9210;48.358;10.902;2023-03-07T13:55:01;14.63;;;7.63;;
18170;SDS011;9210;48.358;10.902;2023-03-07T13:57:33;17.40;;;7.77;;
18170;SDS011;9210;48.358;10.902;2023-03-07T14:00:17;16.27;;;8.17;;
18170;SDS011;9210;48.358;10.902;2023-03-07T14:02:48;15.67;;;7.37;;
18170;SDS011;9210;48.358;10.902;2023-03-07T14:05:18;15.13;;;7.10;;
18170;SDS011;9210;48.358;10.902;2023-03-07T14:07:46;17.00;;;7.67;;
18170;SDS011;9210;48.358;10.902;2023-03-07T14:10:18;15.43;;;7.30;;
18170;SDS011;9210;48.358;10.902;2023-03-07T14:15:34;15.00;;;7.17;;
18170;SDS011;9210;48.358;10.902;2023-03-07T14:18:09;13.70;;;7.37;;
18170;SDS011;9210;48.358;10.902;2023-03-07T14:20:45;15.53;;;7.83;;
18170;SDS011;9210;48.358;10.902;2023-03-07T14:23:17;16.67;;;7.67;;
18170;SDS011;9210;48.358;10.902;2023-03-07T14:25:48;17.50;;;8.13;;
18170;SDS011;9210;48.358;10.902;2023-03-07T14:28:19;14.57;;;7.50;;
18170;SDS011;9210;48.358;10.902;2023-03-07T14:30:56;18.13;;;7.67;;
18170;SDS011;9210;48.358;10.902;2023-03-07T14:33:28;15.40;;;8.00;;
18170;SDS011;9210;48.358;10.902;2023-03-07T14:35:57;15.97;;;7.23;;
18170;SDS011;9210;48.358;10.902;2023-03-07T14:38:26;16.40;;;7.50;;
18170;SDS011;9210;48.358;10.902;2023-03-07T14:41:03;16.87;;;7.67;;
18170;SDS011;9210;48.358;10.902;2023-03-07T14:43:39;21.40;;;8.33;;
18170;SDS011;9210;48.358;10.902;2023-03-07T14:46:15;15.63;;;8.10;;
18170;SDS011;9210;48.358;10.902;2023-03-07T14:51:29;14.20;;;7.30;;
18170;SDS011;9210;48.358;10.902;2023-03-07T14:53:58;15.97;;;8.50;;
18170;SDS011;9210;48.358;10.902;2023-03-07T14:56:32;19.33;;;7.93;;
18170;SDS011;9210;48.358;10.902;2023-03-07T14:59:01;18.97;;;7.97;;
18170;SDS011;9210;48.358;10.902;2023-03-07T15:01:32;16.50;;;7.87;;
18170;SDS011;9210;48.358;10.902;2023-03-07T15:04:02;17.53;;;7.77;;
18170;SDS011;9210;48.358;10.902;2023-03-07T15:06:40;17.50;;;7.70;;
18170;SDS011;9210;48.358;10.902;2023-03-07T15:09:08;18.87;;;8.30;;
18170;SDS011;9210;48.358;10.902;2023-03-07T15:11:38;16.97;;;7.97;;
18170;SDS011;9210;48.358;10.902;2023-03-07T15:14:10;16.80;;;7.70;;
18170;SDS011;9210;48.358;10.902;2023-03-07T15:16:42;14.27;;;7.97;;
18170;SDS011;9210;48.358;10.902;2023-03-07T15:19:13;15.97;;;7.80;;
18170;SDS011;9210;48.358;10.902;2023-03-07T15:21:43;16.17;;;8.33;;
18170;SDS011;9210;48.358;10.902;2023-03-07T15:24:15;16.87;;;8.30;;